createdAt,value
2017-09-15T00:00:10.778Z,8.4
2017-09-15T00:01:29.434Z,8.4
2017-09-15T00:02:48.128Z,8.5
2017-09-15T00:04:06.830Z,8.5
2017-09-15T00:05:25.514Z,8.5
2017-09-15T00:06:44.161Z,8.5
2017-09-15T00:08:02.811Z,8.5
2017-09-15T00:09:21.473Z,8.5
2017-09-15T00:10:40.138Z,8.5
2017-09-15T00:11:58.800Z,8.5
2017-09-15T00:13:17.453Z,8.5
2017-09-15T00:14:36.165Z,8.5
2017-09-15T00:15:54.846Z,8.5
2017-09-15T00:17:13.502Z,8.5
2017-09-15T00:18:32.144Z,8.5
2017-09-15T00:19:50.802Z,8.5
2017-09-15T00:21:09.451Z,8.4
2017-09-15T00:22:28.164Z,8.4
2017-09-15T00:23:46.823Z,8.3
2017-09-15T00:25:05.496Z,8.2
2017-09-15T00:26:24.187Z,8.2
2017-09-15T00:27:42.834Z,8.2
2017-09-15T00:29:01.493Z,8.2
2017-09-15T00:30:20.193Z,8.3
2017-09-15T00:31:38.835Z,8.4
2017-09-15T00:32:57.516Z,8.4
2017-09-15T00:34:16.169Z,8.5
2017-09-15T00:35:34.858Z,8.5
2017-09-15T00:36:53.543Z,8.5
2017-09-15T00:38:12.187Z,8.4
2017-09-15T00:39:30.871Z,8.5
2017-09-15T00:40:49.567Z,8.4
2017-09-15T00:42:08.247Z,8.5
2017-09-15T00:43:26.943Z,8.5
2017-09-15T00:44:45.648Z,8.5
2017-09-15T00:46:04.306Z,8.6
2017-09-15T00:47:23.003Z,8.6
2017-09-15T00:48:41.660Z,8.6
2017-09-15T00:50:00.364Z,8.6
2017-09-15T00:51:19.027Z,8.7
2017-09-15T00:52:37.680Z,8.7
2017-09-15T00:53:56.332Z,8.7
2017-09-15T00:55:14.991Z,8.8
2017-09-15T00:56:33.648Z,8.8
2017-09-15T00:57:52.296Z,8.8
2017-09-15T00:59:10.952Z,8.8
2017-09-15T01:00:29.635Z,8.8
2017-09-15T01:01:48.326Z,8.8
2017-09-15T01:03:07.030Z,8.8
2017-09-15T01:04:25.683Z,8.8
2017-09-15T01:05:44.385Z,8.8
2017-09-15T01:07:03.047Z,8.8
2017-09-15T01:08:21.703Z,8.9
2017-09-15T01:09:40.372Z,8.9
2017-09-15T01:10:59.038Z,8.9
2017-09-15T01:12:17.699Z,8.9
2017-09-15T01:13:36.392Z,8.9
2017-09-15T01:14:55.045Z,9
2017-09-15T01:16:13.696Z,9
2017-09-15T01:17:32.361Z,9
2017-09-15T01:18:51.008Z,9
2017-09-15T01:20:09.678Z,9
2017-09-15T01:21:28.371Z,9
2017-09-15T01:22:47.038Z,9
2017-09-15T01:24:05.696Z,9
2017-09-15T01:25:24.393Z,9
2017-09-15T01:26:43.059Z,9
2017-09-15T01:28:01.713Z,9
2017-09-15T01:29:20.361Z,9
2017-09-15T01:30:39.063Z,9
2017-09-15T01:31:57.714Z,8.9
2017-09-15T01:33:16.422Z,8.9
2017-09-15T01:34:35.069Z,8.9
2017-09-15T01:35:53.713Z,8.9
2017-09-15T01:37:12.388Z,8.9
2017-09-15T01:38:31.059Z,8.9
2017-09-15T01:39:49.701Z,8.8
2017-09-15T01:41:08.376Z,8.8
2017-09-15T01:42:27.080Z,8.8
2017-09-15T01:43:45.735Z,8.8
2017-09-15T01:45:04.417Z,8.8
2017-09-15T01:46:23.072Z,8.8
2017-09-15T01:47:41.780Z,8.8
2017-09-15T01:49:00.435Z,8.8
2017-09-15T01:50:19.132Z,8.8
2017-09-15T01:51:37.823Z,8.7
2017-09-15T01:52:56.509Z,8.7
2017-09-15T01:54:15.182Z,8.7
2017-09-15T01:55:33.885Z,8.7
2017-09-15T01:56:52.560Z,8.7
2017-09-15T01:58:11.223Z,8.6
2017-09-15T01:59:29.903Z,8.6
2017-09-15T02:00:48.553Z,8.6
2017-09-15T02:02:07.201Z,8.6
2017-09-15T02:03:25.845Z,8.5
2017-09-15T02:04:44.535Z,8.5
2017-09-15T02:06:03.214Z,8.5
2017-09-15T02:07:21.864Z,8.5
2017-09-15T02:08:40.537Z,8.4
2017-09-15T02:09:59.221Z,8.5
2017-09-15T02:11:17.871Z,8.5
2017-09-15T02:12:36.525Z,8.6
2017-09-15T02:13:55.177Z,8.6
2017-09-15T02:15:13.834Z,8.7
2017-09-15T02:16:32.486Z,8.7
2017-09-15T02:17:51.140Z,8.8
2017-09-15T02:19:09.834Z,8.8
2017-09-15T02:20:28.501Z,8.8
2017-09-15T02:21:47.206Z,8.8
2017-09-15T02:23:05.871Z,8.9
2017-09-15T02:24:24.526Z,8.9
2017-09-15T02:25:43.202Z,8.9
2017-09-15T02:27:01.862Z,9
2017-09-15T02:28:20.535Z,9
2017-09-15T02:29:39.238Z,9
2017-09-15T02:30:57.905Z,9
2017-09-15T02:32:16.574Z,8.9
2017-09-15T02:33:35.248Z,8.9
2017-09-15T02:34:53.895Z,8.7
2017-09-15T02:36:12.623Z,8.6
2017-09-15T02:37:31.290Z,8.6
2017-09-15T02:38:49.948Z,8.5
2017-09-15T02:40:08.593Z,8.5
2017-09-15T02:41:27.250Z,8.5
2017-09-15T02:42:45.896Z,8.5
2017-09-15T02:44:04.544Z,8.5
2017-09-15T02:45:23.234Z,8.5
2017-09-15T02:46:41.883Z,8.6
2017-09-15T02:48:00.564Z,8.7
2017-09-15T02:49:19.250Z,8.8
2017-09-15T02:50:37.901Z,8.8
2017-09-15T02:51:56.574Z,8.8
2017-09-15T02:53:15.248Z,8.9
2017-09-15T02:54:33.904Z,8.9
2017-09-15T02:55:52.594Z,8.9
2017-09-15T02:57:11.266Z,8.9
2017-09-15T02:58:29.970Z,8.9
2017-09-15T02:59:48.671Z,8.9
2017-09-15T03:01:07.337Z,9
2017-09-15T03:02:26.009Z,9
2017-09-15T03:03:44.670Z,9
2017-09-15T03:05:03.317Z,9
2017-09-15T03:06:21.961Z,9
2017-09-15T03:07:40.624Z,8.9
2017-09-15T03:08:59.280Z,8.9
2017-09-15T03:10:17.933Z,8.9
2017-09-15T03:11:36.640Z,8.9
2017-09-15T03:12:55.323Z,9
2017-09-15T03:14:14.057Z,8.9
2017-09-15T03:15:32.704Z,9
2017-09-15T03:16:51.383Z,9
2017-09-15T03:18:10.057Z,9
2017-09-15T03:19:28.715Z,8.9
2017-09-15T03:20:47.444Z,8.9
2017-09-15T03:22:06.109Z,8.9
2017-09-15T03:23:24.783Z,8.9
2017-09-15T03:24:43.438Z,8.9
2017-09-15T03:26:02.086Z,8.9
2017-09-15T03:27:20.726Z,8.9
2017-09-15T03:28:39.398Z,8.9
2017-09-15T03:29:58.040Z,8.8
2017-09-15T03:31:16.691Z,8.8
2017-09-15T03:32:35.342Z,8.8
2017-09-15T03:33:54.028Z,8.8
2017-09-15T03:35:12.681Z,8.8
2017-09-15T03:36:31.341Z,8.9
2017-09-15T03:37:49.998Z,8.9
2017-09-15T03:39:08.691Z,8.9
2017-09-15T03:40:27.413Z,8.9
2017-09-15T03:41:46.066Z,8.9
2017-09-15T03:43:04.726Z,9
2017-09-15T03:44:23.373Z,8.9
2017-09-15T03:45:42.026Z,8.9
2017-09-15T03:47:00.690Z,8.7
2017-09-15T03:48:19.394Z,8.7
2017-09-15T03:49:38.062Z,8.6
2017-09-15T03:50:56.716Z,8.5
2017-09-15T03:52:15.361Z,8.5
2017-09-15T03:53:34.035Z,8.5
2017-09-15T03:54:52.691Z,8.5
2017-09-15T03:56:11.342Z,8.6
2017-09-15T03:57:30.011Z,8.6
2017-09-15T03:58:48.666Z,8.6
2017-09-15T04:00:07.345Z,8.6
2017-09-15T04:01:25.995Z,8.6
2017-09-15T04:02:44.696Z,8.6
2017-09-15T04:04:03.355Z,8.6
2017-09-15T04:05:22.023Z,8.7
2017-09-15T04:06:40.681Z,8.7
2017-09-15T04:07:59.341Z,8.7
2017-09-15T04:09:17.986Z,8.8
2017-09-15T04:10:36.642Z,8.8
2017-09-15T04:11:55.285Z,8.8
2017-09-15T04:13:13.968Z,8.9
2017-09-15T04:14:32.612Z,8.9
2017-09-15T04:15:51.283Z,8.9
2017-09-15T04:17:09.934Z,8.9
2017-09-15T04:18:28.599Z,9
2017-09-15T04:19:47.292Z,9
2017-09-15T04:21:05.957Z,9
2017-09-15T04:22:24.604Z,9
2017-09-15T04:23:43.256Z,9
2017-09-15T04:25:01.903Z,9
2017-09-15T04:26:20.555Z,9
2017-09-15T04:27:39.227Z,9
2017-09-15T04:28:57.879Z,9
2017-09-15T04:30:16.528Z,9
2017-09-15T04:31:35.195Z,9.1
2017-09-15T04:32:53.890Z,9.1
2017-09-15T04:34:12.551Z,9.1
2017-09-15T04:35:31.206Z,9.1
2017-09-15T04:36:49.886Z,9.1
2017-09-15T04:38:08.553Z,9.1
2017-09-15T04:39:27.257Z,9.1
2017-09-15T04:40:45.931Z,9.1
2017-09-15T04:42:04.601Z,9.1
2017-09-15T04:43:23.298Z,9.1
2017-09-15T04:44:42.003Z,9.1
2017-09-15T04:46:00.653Z,9.1
2017-09-15T04:47:19.325Z,9.1
2017-09-15T04:48:38.031Z,9.1
2017-09-15T04:49:56.722Z,9.1
2017-09-15T04:51:15.374Z,9.1
2017-09-15T04:52:34.034Z,9.1
2017-09-15T04:53:52.684Z,9
2017-09-15T04:55:11.356Z,9
2017-09-15T04:56:30.025Z,9
2017-09-15T04:57:48.722Z,8.9
2017-09-15T04:59:07.372Z,8.9
2017-09-15T05:00:26.022Z,8.9
2017-09-15T05:01:44.677Z,9
2017-09-15T05:03:03.360Z,9
2017-09-15T05:04:22.040Z,9
2017-09-15T05:05:40.709Z,9.1
2017-09-15T05:06:59.361Z,9.1
2017-09-15T05:08:18.046Z,9.1
2017-09-15T05:09:36.695Z,9.1
2017-09-15T05:10:55.345Z,9.1
2017-09-15T05:12:13.990Z,9.1
2017-09-15T05:13:32.665Z,9.1
2017-09-15T05:14:51.316Z,9.2
2017-09-15T05:16:09.989Z,9.2
2017-09-15T05:17:28.662Z,9.2
2017-09-15T05:18:47.325Z,9.3
2017-09-15T05:20:06.004Z,9.3
2017-09-15T05:21:24.710Z,9.3
2017-09-15T05:22:43.385Z,9.3
2017-09-15T05:24:02.048Z,9.3
2017-09-15T05:25:20.706Z,9.3
2017-09-15T05:26:39.359Z,9.3
2017-09-15T05:27:58.008Z,9.3
2017-09-15T05:29:16.672Z,9.4
2017-09-15T05:30:35.334Z,9.4
2017-09-15T05:31:53.999Z,9.4
2017-09-15T05:33:12.656Z,9.4
2017-09-15T05:34:31.324Z,9.4
2017-09-15T05:35:49.971Z,9.4
2017-09-15T05:37:08.628Z,9.4
2017-09-15T05:38:27.282Z,9.4
2017-09-15T05:39:45.950Z,9.3
2017-09-15T05:41:04.615Z,9.3
2017-09-15T05:42:23.275Z,9.3
2017-09-15T05:43:41.923Z,9.3
2017-09-15T05:45:00.589Z,9.3
2017-09-15T05:46:19.297Z,9.4
2017-09-15T05:47:37.947Z,9.5
2017-09-15T05:48:56.597Z,9.6
2017-09-15T05:50:15.320Z,9.6
2017-09-15T05:51:33.965Z,9.7
2017-09-15T05:52:52.664Z,9.7
2017-09-15T05:54:11.317Z,9.8
2017-09-15T05:55:29.977Z,9.8
2017-09-15T05:56:48.628Z,9.7
2017-09-15T05:58:07.281Z,9.7
2017-09-15T05:59:25.931Z,9.8
2017-09-15T06:00:44.602Z,9.8
2017-09-15T06:02:03.330Z,9.9
2017-09-15T06:03:21.994Z,9.9
2017-09-15T06:04:40.681Z,9.9
2017-09-15T06:05:59.360Z,10
2017-09-15T06:07:18.090Z,10
2017-09-15T06:08:36.785Z,10.1
2017-09-15T06:09:55.446Z,10.1
2017-09-15T06:11:14.122Z,10.3
2017-09-15T06:12:32.788Z,10.4
2017-09-15T06:13:51.456Z,10.4
2017-09-15T06:15:10.156Z,10.4
2017-09-15T06:16:28.828Z,10.6
2017-09-15T06:17:47.488Z,10.7
2017-09-15T06:19:06.152Z,10.9
2017-09-15T06:20:24.822Z,11
2017-09-15T06:21:43.508Z,11.1
2017-09-15T06:23:02.211Z,11.2
2017-09-15T06:24:20.868Z,11.2
2017-09-15T06:25:39.535Z,11.2
2017-09-15T06:26:58.242Z,11.2
2017-09-15T06:28:16.954Z,11.3
2017-09-15T06:29:35.615Z,11.1
2017-09-15T06:30:54.279Z,11
2017-09-15T06:32:13.015Z,11
2017-09-15T06:33:31.737Z,11
2017-09-15T06:34:50.411Z,11
2017-09-15T06:36:09.075Z,11.1
2017-09-15T06:37:27.794Z,11.2
2017-09-15T06:38:46.494Z,11.1
2017-09-15T06:40:05.164Z,11
2017-09-15T06:41:23.831Z,11.1
2017-09-15T06:42:42.514Z,11.1
2017-09-15T06:44:01.175Z,11.1
2017-09-15T06:45:19.872Z,11.1
2017-09-15T06:46:38.539Z,11.1
2017-09-15T06:47:57.259Z,11.3
2017-09-15T06:49:15.923Z,11.4
2017-09-15T06:50:34.612Z,11.6
2017-09-15T06:51:53.307Z,11.6
2017-09-15T06:53:11.968Z,11.8
2017-09-15T06:54:30.686Z,11.8
2017-09-15T06:55:49.401Z,11.9
2017-09-15T06:57:08.090Z,11.9
2017-09-15T06:58:26.774Z,11.9
2017-09-15T06:59:45.468Z,11.9
2017-09-15T07:01:04.133Z,11.9
2017-09-15T07:02:22.790Z,12
2017-09-15T07:03:41.555Z,12
2017-09-15T07:05:00.225Z,12
2017-09-15T07:06:18.887Z,12.2
2017-09-15T07:07:37.549Z,12.3
2017-09-15T07:08:56.246Z,12.4
2017-09-15T07:10:14.905Z,12.5
2017-09-15T07:11:33.572Z,12.4
2017-09-15T07:12:52.296Z,12.3
2017-09-15T07:14:11.014Z,12.2
2017-09-15T07:15:29.679Z,12.3
2017-09-15T07:16:48.347Z,12.2
2017-09-15T07:18:07.067Z,12.4
2017-09-15T07:19:25.745Z,12.6
2017-09-15T07:20:44.448Z,12.7
2017-09-15T07:22:03.135Z,12.8
2017-09-15T07:23:21.857Z,12.8
2017-09-15T07:24:40.528Z,12.8
2017-09-15T07:25:59.195Z,12.8
2017-09-15T07:27:17.880Z,12.6
2017-09-15T07:28:36.587Z,12.4
2017-09-15T07:29:55.269Z,12.1
2017-09-15T07:31:13.973Z,12.1
2017-09-15T07:32:32.656Z,12.1
2017-09-15T07:33:51.388Z,12.3
2017-09-15T07:35:10.078Z,12.4
2017-09-15T07:36:28.746Z,12.3
2017-09-15T07:37:47.450Z,12.4
2017-09-15T07:39:06.111Z,12.6
2017-09-15T07:40:24.815Z,12.6
2017-09-15T07:41:43.492Z,13.3
2017-09-15T07:43:02.195Z,13.5
2017-09-15T07:44:20.873Z,14.2
2017-09-15T07:45:39.551Z,14.4
2017-09-15T07:46:58.210Z,13.9
2017-09-15T07:48:16.913Z,13.9
2017-09-15T07:49:35.596Z,13.6
2017-09-15T07:50:54.330Z,13.6
2017-09-15T07:52:13.026Z,13.5
2017-09-15T07:53:31.699Z,13.5
2017-09-15T07:54:50.366Z,13.5
2017-09-15T07:56:09.052Z,13.5
2017-09-15T07:57:27.741Z,13.4
2017-09-15T07:58:46.406Z,13.1
2017-09-15T08:00:05.068Z,13
2017-09-15T08:01:23.772Z,12.9
2017-09-15T08:02:42.442Z,12.8
2017-09-15T08:04:01.140Z,12.5
2017-09-15T08:05:19.812Z,12.6
2017-09-15T08:06:38.498Z,12.6
2017-09-15T08:07:57.195Z,12.5
2017-09-15T08:09:15.863Z,12.4
2017-09-15T08:10:34.563Z,12.3
2017-09-15T08:11:53.300Z,12.5
2017-09-15T08:13:12.007Z,12.7
2017-09-15T08:14:30.668Z,12.7
2017-09-15T08:15:49.331Z,12.8
2017-09-15T08:17:08.057Z,12.9
2017-09-15T08:18:26.735Z,13
2017-09-15T08:19:45.429Z,13.1
2017-09-15T08:21:04.150Z,12.9
2017-09-15T08:22:22.850Z,12.8
2017-09-15T08:23:41.549Z,12.9
2017-09-15T08:25:00.271Z,13
2017-09-15T08:26:18.962Z,13.2
2017-09-15T08:27:37.695Z,13.2
2017-09-15T08:28:56.358Z,13.3
2017-09-15T08:30:15.054Z,13.4
2017-09-15T08:31:33.716Z,13.2
2017-09-15T08:32:52.389Z,13.3
2017-09-15T08:34:11.110Z,13.5
2017-09-15T08:35:29.773Z,13.5
2017-09-15T08:36:48.440Z,13.3
2017-09-15T08:38:07.119Z,13.1
2017-09-15T08:39:25.841Z,13.1
2017-09-15T08:40:44.538Z,13
2017-09-15T08:42:03.239Z,13.2
2017-09-15T08:43:21.966Z,13.4
2017-09-15T08:44:40.659Z,13.5
2017-09-15T08:45:59.330Z,13.7
2017-09-15T08:47:17.994Z,13.9
2017-09-15T08:48:36.673Z,14
2017-09-15T08:49:55.385Z,14.1
2017-09-15T08:51:14.045Z,14
2017-09-15T08:52:32.800Z,14.1
2017-09-15T08:53:51.501Z,14.1
2017-09-15T08:55:10.162Z,14.2
2017-09-15T08:56:28.844Z,14
2017-09-15T08:57:47.533Z,14
2017-09-15T08:59:06.205Z,14.1
2017-09-15T09:00:24.864Z,14
2017-09-15T09:01:43.533Z,13.6
2017-09-15T09:03:02.244Z,13.5
2017-09-15T09:04:20.989Z,13.6
2017-09-15T09:05:39.652Z,13.7
2017-09-15T09:06:58.315Z,13.6
2017-09-15T09:08:16.984Z,13.2
2017-09-15T09:09:35.711Z,13.4
2017-09-15T09:10:54.434Z,13.9
2017-09-15T09:12:13.095Z,14
2017-09-15T09:13:31.760Z,14.1
2017-09-15T09:14:50.436Z,14.1
2017-09-15T09:16:09.107Z,13.9
2017-09-15T09:17:27.802Z,13.9
2017-09-15T09:18:46.479Z,14.1
2017-09-15T09:20:05.200Z,14.2
2017-09-15T09:21:23.905Z,14.3
2017-09-15T09:22:42.650Z,14.1
2017-09-15T09:24:01.320Z,13.7
2017-09-15T09:25:20.006Z,13.8
2017-09-15T09:26:38.672Z,14.1
2017-09-15T09:27:57.348Z,14.3
2017-09-15T09:29:16.007Z,14.5
2017-09-15T09:30:34.679Z,14.7
2017-09-15T09:31:53.345Z,14.6
2017-09-15T09:33:12.005Z,14.6
2017-09-15T09:34:30.670Z,14.6
2017-09-15T09:35:49.344Z,14.2
2017-09-15T09:37:08.042Z,14
2017-09-15T09:38:26.710Z,13.8
2017-09-15T09:39:45.383Z,13.7
2017-09-15T09:41:04.071Z,13.6
2017-09-15T09:42:22.739Z,13.7
2017-09-15T09:43:41.412Z,13.9
2017-09-15T09:45:00.075Z,13.9
2017-09-15T09:46:18.754Z,13.9
2017-09-15T09:47:37.491Z,14.1
2017-09-15T09:48:56.202Z,14.3
2017-09-15T09:50:14.924Z,14.4
2017-09-15T09:51:33.617Z,14.3
2017-09-15T09:52:52.304Z,14.3
2017-09-15T09:54:10.988Z,14.2
2017-09-15T09:55:29.659Z,14.1
2017-09-15T09:56:48.379Z,14.1
2017-09-15T09:58:07.053Z,14
2017-09-15T09:59:25.794Z,14.2
2017-09-15T10:00:44.459Z,14.2
2017-09-15T10:02:03.174Z,14.4
2017-09-15T10:03:21.843Z,14.5
2017-09-15T10:04:40.568Z,14.8
2017-09-15T10:05:59.248Z,14.9
2017-09-15T10:07:17.941Z,15.1
2017-09-15T10:08:36.620Z,14.8
2017-09-15T10:09:55.282Z,14.8
2017-09-15T10:11:13.946Z,14.9
2017-09-15T10:12:32.683Z,15.1
2017-09-15T10:13:51.357Z,15.3
2017-09-15T10:15:10.045Z,15.3
2017-09-15T10:16:28.713Z,15.6
2017-09-15T10:17:47.410Z,15.7
2017-09-15T10:19:06.128Z,15.7
2017-09-15T10:20:24.787Z,15.6
2017-09-15T10:21:43.448Z,15.6
2017-09-15T10:23:02.136Z,15.3
2017-09-15T10:24:20.854Z,15
2017-09-15T10:25:39.523Z,15.1
2017-09-15T10:26:58.209Z,15.3
2017-09-15T10:28:16.885Z,15.3
2017-09-15T10:29:35.602Z,15.3
2017-09-15T10:30:54.267Z,15.1
2017-09-15T10:32:12.929Z,15.2
2017-09-15T10:33:31.607Z,15.1
2017-09-15T10:34:50.270Z,15.2
2017-09-15T10:36:08.938Z,15.3
2017-09-15T10:37:27.611Z,15.2
2017-09-15T10:38:46.280Z,15.2
2017-09-15T10:40:04.937Z,15.1
2017-09-15T10:41:23.608Z,15.6
2017-09-15T10:42:42.348Z,15.8
2017-09-15T10:44:01.035Z,15.7
2017-09-15T10:45:19.703Z,15.8
2017-09-15T10:46:38.400Z,16
2017-09-15T10:47:57.126Z,16.2
2017-09-15T10:49:15.871Z,16.2
2017-09-15T10:50:34.541Z,16.3
2017-09-15T10:51:53.202Z,15.8
2017-09-15T10:53:11.867Z,15.8
2017-09-15T10:54:30.594Z,15.8
2017-09-15T10:55:49.262Z,16.2
2017-09-15T10:57:07.931Z,16.3
2017-09-15T10:58:26.644Z,16.3
2017-09-15T10:59:45.352Z,16.3
2017-09-15T11:01:04.040Z,16.3
2017-09-15T11:02:22.714Z,16.7
2017-09-15T11:03:41.386Z,17.3
2017-09-15T11:05:00.055Z,17.5
2017-09-15T11:06:18.777Z,17.4
2017-09-15T11:07:37.446Z,17.1
2017-09-15T11:08:56.105Z,17.2
2017-09-15T11:10:14.834Z,17.4
2017-09-15T11:11:33.500Z,17.4
2017-09-15T11:12:52.219Z,17.5
2017-09-15T11:14:10.878Z,17.7
2017-09-15T11:15:29.548Z,17.6
2017-09-15T11:16:48.253Z,17.6
2017-09-15T11:18:06.937Z,17.5
2017-09-15T11:19:25.595Z,17.5
2017-09-15T11:20:44.281Z,17.6
2017-09-15T11:22:02.964Z,17.5
2017-09-15T11:23:21.621Z,17.6
2017-09-15T11:24:40.285Z,17.7
2017-09-15T11:25:58.972Z,17.5
2017-09-15T11:27:17.657Z,17.2
2017-09-15T11:28:36.339Z,17.4
2017-09-15T11:29:55.053Z,17.3
2017-09-15T11:31:13.758Z,17.9
2017-09-15T11:32:32.428Z,18.6
2017-09-15T11:33:51.094Z,18.5
2017-09-15T11:35:09.765Z,18.2
2017-09-15T11:36:28.458Z,18
2017-09-15T11:37:47.140Z,18.1
2017-09-15T11:39:05.806Z,18.6
2017-09-15T11:40:24.469Z,18.9
2017-09-15T11:41:43.140Z,19.1
2017-09-15T11:43:01.820Z,19.6
2017-09-15T11:44:20.484Z,19.6
2017-09-15T11:45:39.150Z,19.4
2017-09-15T11:46:57.830Z,18.9
2017-09-15T11:48:16.541Z,19.5
2017-09-15T11:49:35.256Z,19.6
2017-09-15T11:50:53.967Z,19.1
2017-09-15T11:52:12.630Z,19
2017-09-15T11:53:31.294Z,19.1
2017-09-15T11:54:50.004Z,18.2
2017-09-15T11:56:08.669Z,18.6
2017-09-15T11:57:27.350Z,19
2017-09-15T11:58:46.022Z,19.8
2017-09-15T12:00:04.693Z,20.3
2017-09-15T12:01:23.391Z,21.1
2017-09-15T12:02:42.084Z,22.2
2017-09-15T12:04:00.747Z,22.6
2017-09-15T12:05:19.410Z,22.9
2017-09-15T12:06:38.073Z,23.1
2017-09-15T12:07:56.766Z,22.9
2017-09-15T12:09:15.433Z,23.9
2017-09-15T12:10:34.102Z,27.1
2017-09-15T12:11:52.770Z,28.3
2017-09-15T12:13:11.450Z,29.8
2017-09-15T12:14:30.141Z,28.1
2017-09-15T12:15:48.850Z,28
2017-09-15T12:17:07.520Z,32
2017-09-15T12:18:26.177Z,34.3
2017-09-15T12:19:44.842Z,34.4
2017-09-15T12:21:03.536Z,34.6
2017-09-15T12:22:22.254Z,34.6
2017-09-15T12:23:40.937Z,32.6
2017-09-15T12:24:59.612Z,30
2017-09-15T12:26:18.300Z,29.4
2017-09-15T12:27:36.966Z,26.7
2017-09-15T12:28:55.652Z,29.4
2017-09-15T12:30:14.321Z,33
2017-09-15T12:31:32.991Z,34.4
2017-09-15T12:32:51.722Z,34.5
2017-09-15T12:34:10.396Z,34.5
2017-09-15T12:35:29.106Z,32.8
2017-09-15T12:36:47.775Z,30.6
2017-09-15T12:38:06.512Z,28.7
2017-09-15T12:39:25.246Z,28.4
2017-09-15T12:40:43.915Z,26.1
2017-09-15T12:42:02.581Z,27.6
2017-09-15T12:43:21.245Z,26.3
2017-09-15T12:44:39.925Z,30.6
2017-09-15T12:45:58.600Z,32.3
2017-09-15T12:47:17.318Z,33.7
2017-09-15T12:48:36.006Z,34.4
2017-09-15T12:49:54.693Z,34.5
2017-09-15T12:51:13.368Z,34.5
2017-09-15T12:52:32.034Z,34.5
2017-09-15T12:53:50.739Z,34.6
2017-09-15T12:55:09.418Z,34.8
2017-09-15T12:56:28.107Z,35
2017-09-15T12:57:46.799Z,35
2017-09-15T12:59:05.467Z,35
2017-09-15T13:00:24.182Z,34.9
2017-09-15T13:01:42.875Z,34.8
2017-09-15T13:03:01.587Z,34.8
2017-09-15T13:04:20.253Z,34.7
2017-09-15T13:05:38.995Z,34.8
2017-09-15T13:06:57.657Z,34.9
2017-09-15T13:08:16.324Z,34.9
2017-09-15T13:09:35.021Z,35.1
2017-09-15T13:10:53.692Z,35.3
2017-09-15T13:12:12.362Z,35.3
2017-09-15T13:13:31.073Z,35.5
2017-09-15T13:14:49.738Z,35.4
2017-09-15T13:16:08.416Z,35.2
2017-09-15T13:17:27.123Z,35.3
2017-09-15T13:18:45.789Z,35.3
2017-09-15T13:20:04.451Z,35
2017-09-15T13:21:23.126Z,35.2
2017-09-15T13:22:41.843Z,35.4
2017-09-15T13:24:00.541Z,35.2
2017-09-15T13:25:19.207Z,35.1
2017-09-15T13:26:37.891Z,34.9
2017-09-15T13:27:56.585Z,35
2017-09-15T13:29:15.310Z,34.9
2017-09-15T13:30:33.983Z,34.9
2017-09-15T13:31:52.714Z,35
2017-09-15T13:33:11.437Z,35
2017-09-15T13:34:30.157Z,35
2017-09-15T13:35:48.877Z,35
2017-09-15T13:37:07.586Z,35
2017-09-15T13:38:26.259Z,35.1
2017-09-15T13:39:44.941Z,35.1
2017-09-15T13:41:03.596Z,35.2
2017-09-15T13:42:22.268Z,35.3
2017-09-15T13:43:40.985Z,35.4
2017-09-15T13:44:59.661Z,35.4
2017-09-15T13:46:18.319Z,35.2
2017-09-15T13:47:37.003Z,35
2017-09-15T13:48:55.668Z,34.4
2017-09-15T13:50:14.341Z,31.4
2017-09-15T13:51:33.004Z,27.8
2017-09-15T13:52:51.727Z,26.3
2017-09-15T13:54:10.397Z,25
2017-09-15T13:55:29.052Z,28.8
2017-09-15T13:56:47.759Z,30.1
2017-09-15T13:58:06.464Z,31.5
2017-09-15T13:59:25.122Z,34.4
2017-09-15T14:00:43.792Z,34.9
2017-09-15T14:02:02.512Z,35.1
2017-09-15T14:03:21.213Z,34.9
2017-09-15T14:04:39.938Z,35
2017-09-15T14:05:58.641Z,34.9
2017-09-15T14:07:17.366Z,35
2017-09-15T14:08:36.041Z,35
2017-09-15T14:09:54.775Z,35.2
2017-09-15T14:11:13.437Z,35.2
2017-09-15T14:12:32.103Z,34.5
2017-09-15T14:13:50.784Z,32
2017-09-15T14:15:09.452Z,29.5
2017-09-15T14:16:28.139Z,28.8
2017-09-15T14:17:46.853Z,27.8
2017-09-15T14:19:05.534Z,26.3
2017-09-15T14:20:24.254Z,25.5
2017-09-15T14:21:42.920Z,24.2
2017-09-15T14:23:01.587Z,23.4
2017-09-15T14:24:20.311Z,28.5
2017-09-15T14:25:38.987Z,33.9
2017-09-15T14:26:57.678Z,34.6
2017-09-15T14:28:16.410Z,34.5
2017-09-15T14:29:35.089Z,30.9
2017-09-15T14:30:53.776Z,28.1
2017-09-15T14:32:12.451Z,32.7
2017-09-15T14:33:31.138Z,34.5
2017-09-15T14:34:49.878Z,34.8
2017-09-15T14:36:08.587Z,34.9
2017-09-15T14:37:27.277Z,35.1
2017-09-15T14:38:45.942Z,35.2
2017-09-15T14:40:04.681Z,35.2
2017-09-15T14:41:23.343Z,35.2
2017-09-15T14:42:42.068Z,35.1
2017-09-15T14:44:00.773Z,34.9
2017-09-15T14:45:19.457Z,34.7
2017-09-15T14:46:38.118Z,34.7
2017-09-15T14:47:56.785Z,34.8
2017-09-15T14:49:15.454Z,34.9
2017-09-15T14:50:34.187Z,34.9
2017-09-15T14:51:52.851Z,33.4
2017-09-15T14:53:11.519Z,29.1
2017-09-15T14:54:30.186Z,26.7
2017-09-15T14:55:48.853Z,24.9
2017-09-15T14:57:07.516Z,23
2017-09-15T14:58:26.215Z,22.5
2017-09-15T14:59:44.879Z,22
2017-09-15T15:01:03.581Z,21.8
2017-09-15T15:02:22.260Z,21
2017-09-15T15:03:40.934Z,20.9
2017-09-15T15:04:59.603Z,20.2
2017-09-15T15:06:18.319Z,20
2017-09-15T15:07:36.979Z,19.5
2017-09-15T15:08:55.663Z,18.5
2017-09-15T15:10:14.328Z,18.1
2017-09-15T15:11:32.997Z,18.1
2017-09-15T15:12:51.663Z,18.2
2017-09-15T15:14:10.336Z,18.3
2017-09-15T15:15:29.006Z,18.2
2017-09-15T15:16:47.705Z,18.4
2017-09-15T15:18:06.421Z,17.8
2017-09-15T15:19:25.089Z,17.6
2017-09-15T15:20:43.751Z,17.2
2017-09-15T15:22:02.435Z,17.1
2017-09-15T15:23:21.123Z,17
2017-09-15T15:24:39.793Z,16.9
2017-09-15T15:25:58.453Z,16.7
2017-09-15T15:27:17.175Z,16.6
2017-09-15T15:28:35.850Z,16.6
2017-09-15T15:29:54.569Z,16.8
2017-09-15T15:31:13.232Z,16.7
2017-09-15T15:32:31.917Z,16.4
2017-09-15T15:33:50.589Z,16.4
2017-09-15T15:35:09.262Z,16.9
2017-09-15T15:36:27.958Z,16.9
2017-09-15T15:37:46.628Z,16.8
2017-09-15T15:39:05.294Z,16.9
2017-09-15T15:40:23.955Z,16.7
2017-09-15T15:41:42.620Z,16.3
2017-09-15T15:43:01.333Z,16
2017-09-15T15:44:20.014Z,16
2017-09-15T15:45:38.724Z,15.9
2017-09-15T15:46:57.386Z,15.8
2017-09-15T15:48:16.103Z,15.8
2017-09-15T15:49:34.826Z,15.4
2017-09-15T15:50:53.521Z,15.1
2017-09-15T15:52:12.185Z,15.3
2017-09-15T15:53:30.886Z,15.5
2017-09-15T15:54:49.550Z,15.7
2017-09-15T15:56:08.271Z,15.3
2017-09-15T15:57:26.989Z,14.9
2017-09-15T15:58:45.664Z,14.7
2017-09-15T16:00:04.389Z,14.5
2017-09-15T16:01:23.060Z,14.3
2017-09-15T16:02:41.782Z,13.9
2017-09-15T16:04:00.505Z,13.9
2017-09-15T16:05:19.224Z,13.7
2017-09-15T16:06:37.891Z,13.8
2017-09-15T16:07:56.562Z,13.7
2017-09-15T16:09:15.297Z,13.6
2017-09-15T16:10:33.959Z,13.4
2017-09-15T16:11:52.669Z,13.5
2017-09-15T16:13:11.337Z,13.5
2017-09-15T16:14:30.043Z,13.5
2017-09-15T16:15:48.755Z,13.6
2017-09-15T16:17:07.425Z,13.8
2017-09-15T16:18:26.116Z,13.9
2017-09-15T16:19:44.794Z,13.8
2017-09-15T16:21:03.455Z,13.8
2017-09-15T16:22:22.174Z,13.9
2017-09-15T16:23:40.919Z,13.9
2017-09-15T16:24:59.588Z,13.7
2017-09-15T16:26:18.281Z,13.8
2017-09-15T16:27:36.954Z,13.7
2017-09-15T16:28:55.697Z,13.7
2017-09-15T16:30:14.384Z,13.7
2017-09-15T16:31:33.102Z,13.5
2017-09-15T16:32:51.795Z,13.3
2017-09-15T16:34:10.465Z,13.4
2017-09-15T16:35:29.197Z,13.5
2017-09-15T16:36:47.855Z,13.6
2017-09-15T16:38:06.547Z,13.6
2017-09-15T16:39:25.250Z,13.7
2017-09-15T16:40:43.944Z,13.8
2017-09-15T16:42:02.614Z,13.9
2017-09-15T16:43:21.291Z,14
2017-09-15T16:44:39.951Z,14
2017-09-15T16:45:58.617Z,13.9
2017-09-15T16:47:17.283Z,13.6
2017-09-15T16:48:35.943Z,13.6
2017-09-15T16:49:54.666Z,13.6
2017-09-15T16:51:13.395Z,13.4
2017-09-15T16:52:32.065Z,13.4
2017-09-15T16:53:50.761Z,13.2
2017-09-15T16:55:09.429Z,13.3
2017-09-15T16:56:28.138Z,13.3
2017-09-15T16:57:46.808Z,13.3
2017-09-15T16:59:05.498Z,13.3
2017-09-15T17:00:24.172Z,13.2
2017-09-15T17:01:42.851Z,13.2
2017-09-15T17:03:01.559Z,13.1
2017-09-15T17:04:20.221Z,13
2017-09-15T17:05:38.896Z,12.9
2017-09-15T17:06:57.585Z,12.8
2017-09-15T17:08:16.256Z,12.8
2017-09-15T17:09:34.969Z,12.7
2017-09-15T17:10:53.690Z,12.6
2017-09-15T17:12:12.373Z,12.4
2017-09-15T17:13:31.079Z,12.4
2017-09-15T17:14:49.774Z,12.4
2017-09-15T17:16:08.438Z,12.4
2017-09-15T17:17:27.166Z,12.4
2017-09-15T17:18:45.831Z,12.3
2017-09-15T17:20:04.500Z,12.3
2017-09-15T17:21:23.172Z,12
2017-09-15T17:22:41.845Z,11.9
2017-09-15T17:24:00.547Z,11.9
2017-09-15T17:25:19.204Z,11.7
2017-09-15T17:26:37.901Z,11.4
2017-09-15T17:27:56.581Z,11.3
2017-09-15T17:29:15.243Z,11
2017-09-15T17:30:33.987Z,10.8
2017-09-15T17:31:52.673Z,10.7
2017-09-15T17:33:11.357Z,10.5
2017-09-15T17:34:30.037Z,10.4
2017-09-15T17:35:48.702Z,10.3
2017-09-15T17:37:07.363Z,10.2
2017-09-15T17:38:26.045Z,10.1
2017-09-15T17:39:44.711Z,10.1
2017-09-15T17:41:03.400Z,10
2017-09-15T17:42:22.063Z,9.9
2017-09-15T17:43:40.745Z,9.8
2017-09-15T17:44:59.416Z,9.8
2017-09-15T17:46:18.070Z,9.7
2017-09-15T17:47:36.727Z,9.6